Time;durP1;ratioP1;P1;durP2;ratioP2;P2;SDS_P1;SDS_P2;PMS_P1;PMS_P2;Temp;Humidity;BMP_temperature;BMP_pressure;BME280_temperature;BME280_humidity;BME280_pressure;Samples;Min_cycle;Max_cycle;Signal;HPM_P1;HPM_P2
2023/08/22 00:00:49;;;;;;;15.23;4.38;;;;;;;20.83;74.78;100352.66;5088966;28;20812;-82
2023/08/22 00:03:14;;;;;;;7.15;3.47;;;;;;;20.89;74.87;100339.47;5089286;28;20036;-79
2023/08/22 00:05:40;;;;;;;7.97;4.57;;;;;;;20.90;74.43;100331.97;5088864;28;20047;-81
2023/08/22 00:08:06;;;;;;;10.10;4.45;;;;;;;20.90;74.25;100335.56;5088478;28;20773;-81
2023/08/22 00:10:32;;;;;;;15.98;4.07;;;;;;;20.88;74.49;100337.84;5089140;28;20177;-81
2023/08/22 00:12:57;;;;;;;12.38;4.82;;;;;;;20.89;74.35;100339.47;5089013;28;20040;-82
2023/08/22 00:15:23;;;;;;;9.70;4.25;;;;;;;20.84;74.35;100329.38;5086913;28;20031;-82
2023/08/22 00:17:50;;;;;;;8.93;3.63;;;;;;;20.81;74.34;100332.75;5084815;28;20036;-82
2023/08/22 00:20:16;;;;;;;10.23;4.85;;;;;;;20.80;74.45;100335.88;5087581;28;20028;-81
2023/08/22 00:22:42;;;;;;;14.65;4.22;;;;;;;20.76;74.69;100341.25;5087321;28;20028;-83
2023/08/22 00:25:09;;;;;;;10.50;4.57;;;;;;;20.76;74.66;100333.75;5087436;28;20497;-82
2023/08/22 00:27:35;;;;;;;10.07;3.75;;;;;;;20.79;74.38;100328.72;5084859;28;20493;-82
2023/08/22 00:30:00;;;;;;;7.75;4.18;;;;;;;20.76;74.23;100338.47;5085018;28;20039;-83
2023/08/22 00:32:25;;;;;;;7.22;4.30;;;;;;;20.72;74.51;100323.63;5087291;28;20039;-83
2023/08/22 00:34:51;;;;;;;13.13;4.45;;;;;;;20.71;74.70;100317.25;5087848;28;20062;-82
2023/08/22 00:37:17;;;;;;;9.10;3.97;;;;;;;20.69;74.54;100313.16;5088083;28;20063;-82
2023/08/22 00:39:43;;;;;;;7.45;3.97;;;;;;;20.64;75.02;100312.19;5089031;28;20476;-82
2023/08/22 00:42:08;;;;;;;10.43;4.20;;;;;;;20.63;75.44;100309.72;5088892;28;20040;-81
2023/08/22 00:44:33;;;;;;;6.95;3.65;;;;;;;20.67;74.84;100318.22;5087899;28;20256;-81
2023/08/22 00:46:59;;;;;;;7.85;3.70;;;;;;;20.64;75.10;100308.59;5088198;28;20112;-82
2023/08/22 00:49:25;;;;;;;9.10;4.75;;;;;;;20.62;75.13;100308.13;5089186;28;20392;-81
2023/08/22 00:51:52;;;;;;;15.20;4.70;;;;;;;20.61;75.28;100303.69;5086981;28;20028;-82
2023/08/22 00:54:18;;;;;;;10.75;4.25;;;;;;;20.61;75.46;100307.28;5088072;28;20406;-80
2023/08/22 00:56:43;;;;;;;13.30;4.47;;;;;;;20.61;75.23;100296.22;5088296;28;20086;-82
2023/08/22 00:59:09;;;;;;;9.88;4.75;;;;;;;20.61;75.21;100296.22;5088707;28;20499;-81
2023/08/22 01:01:34;;;;;;;8.50;4.53;;;;;;;20.61;75.55;100298.97;5087056;28;20494;-74
2023/08/22 01:04:00;;;;;;;6.28;3.92;;;;;;;20.62;75.39;100283.19;5084920;28;20043;-75
2023/08/22 01:06:44;;;;;;;6.65;3.80;;;;;;;20.60;75.19;100280.75;5085011;28;21213;-75
2023/08/22 01:09:22;;;;;;;9.52;3.97;;;;;;;20.60;75.45;100277.16;5084586;28;20467;-75
2023/08/22 01:11:50;;;;;;;10.52;4.60;;;;;;;20.59;75.70;100284.63;5086316;28;20070;-82
2023/08/22 01:14:19;;;;;;;10.52;4.68;;;;;;;20.56;76.04;100285.28;5087706;28;20039;-81
2023/08/22 01:16:45;;;;;;;10.23;5.13;;;;;;;20.47;76.25;100276.13;5088473;28;20035;-80
2023/08/22 01:19:13;;;;;;;10.23;4.68;;;;;;;20.44;76.53;100280.38;5088202;28;20035;-82
2023/08/22 01:21:51;;;;;;;6.07;3.45;;;;;;;20.50;76.23;100279.06;5087561;28;21205;-81
2023/08/22 01:24:17;;;;;;;7.45;3.95;;;;;;;20.55;76.21;100278.09;5087585;28;20093;-81
2023/08/22 01:26:44;;;;;;;6.50;4.53;;;;;;;20.56;76.12;100278.94;5087562;28;21028;-81
2023/08/22 01:29:11;;;;;;;13.77;4.85;;;;;;;20.61;76.08;100290.66;5087995;28;20056;-81
2023/08/22 01:31:42;;;;;;;11.00;4.75;;;;;;;20.56;76.08;100285.28;5087816;28;20028;-82
2023/08/22 01:34:14;;;;;;;7.43;4.40;;;;;;;20.50;76.10;100286.56;5087760;28;20040;-81
2023/08/22 01:36:43;;;;;;;8.63;4.45;;;;;;;20.52;76.22;100281.53;5087839;28;20057;-81
2023/08/22 01:39:09;;;;;;;11.05;4.22;;;;;;;20.52;76.21;100276.00;5087636;28;20027;-82
2023/08/22 01:41:36;;;;;;;8.75;3.90;;;;;;;20.48;76.49;100275.78;5087875;28;20062;-81
2023/08/22 01:44:03;;;;;;;9.35;4.60;;;;;;;20.51;76.32;100274.34;5087053;28;20507;-81
2023/08/22 01:46:28;;;;;;;7.05;4.32;;;;;;;20.50;76.66;100278.25;5087974;28;20079;-79
2023/08/22 01:48:54;;;;;;;10.68;4.30;;;;;;;20.52;76.66;100276.00;5089207;28;20048;-81
2023/08/22 01:51:19;;;;;;;12.68;4.60;;;;;;;20.52;76.85;100270.44;5088174;28;20059;-81
2023/08/22 01:53:44;;;;;;;9.87;4.13;;;;;;;20.47;76.63;100268.63;5088861;28;20115;-80
2023/08/22 01:56:10;;;;;;;8.77;4.07;;;;;;;20.48;76.75;100263.91;5088203;28;20255;-81
2023/08/22 01:58:35;;;;;;;10.97;4.07;;;;;;;20.51;77.03;100266.03;5088676;28;20346;-80
2023/08/22 02:01:11;;;;;;;10.73;4.47;;;;;;;20.53;76.75;100261.81;5088562;28;20256;-79
2023/08/22 02:03:37;;;;;;;7.68;3.97;;;;;;;20.55;76.82;100264.25;5088115;28;20485;-79
2023/08/22 02:06:02;;;;;;;7.25;4.30;;;;;;;20.53;76.93;100258.22;5089150;28;20113;-80
2023/08/22 02:08:28;;;;;;;14.05;4.57;;;;;;;20.51;77.01;100263.25;5089342;28;20040;-79
2023/08/22 02:10:53;;;;;;;8.82;4.30;;;;;;;20.54;76.68;100268.19;5088933;28;20035;-81
2023/08/22 02:13:19;;;;;;;16.90;3.93;;;;;;;20.56;76.67;100265.91;5084921;28;20035;-72
2023/08/22 02:15:44;;;;;;;8.30;3.97;;;;;;;20.53;76.44;100264.59;5084220;28;20846;-72
2023/08/22 02:18:09;;;;;;;9.00;4.40;;;;;;;20.46;77.22;100264.22;5084733;28;20036;-73
2023/08/22 02:20:34;;;;;;;8.52;4.57;;;;;;;20.44;77.01;100269.28;5083402;28;20259;-73
2023/08/22 02:23:02;;;;;;;9.47;4.47;;;;;;;20.49;76.68;100262.78;5083559;28;20049;-81
2023/08/22 02:25:27;;;;;;;13.40;4.38;;;;;;;20.47;76.90;100267.81;5087823;28;20256;-79
2023/08/22 02:27:52;;;;;;;9.30;4.30;;;;;;;20.42;76.94;100261.28;5088053;28;20039;-80
2023/08/22 02:30:17;;;;;;;7.38;4.03;;;;;;;20.44;76.81;100262.94;5087710;28;20309;-82
2023/08/22 02:32:43;;;;;;;9.03;4.13;;;;;;;20.37;76.72;100255.91;5088796;28;20028;-81
2023/08/22 02:35:08;;;;;;;10.27;4.37;;;;;;;20.30;77.57;100258.28;5088740;28;20253;-80
2023/08/22 02:37:33;;;;;;;10.63;4.75;;;;;;;20.30;77.71;100263.81;5088473;28;21224;-79
2023/08/22 02:39:58;;;;;;;24.17;5.00;;;;;;;20.32;77.41;100250.47;5088559;28;20088;-81
2023/08/22 02:42:24;;;;;;;10.10;4.53;;;;;;;20.35;77.42;100255.41;5088523;28;20252;-79
2023/08/22 02:44:49;;;;;;;10.85;5.40;;;;;;;20.36;77.36;100257.03;5088022;28;20249;-79
2023/08/22 02:47:14;;;;;;;12.80;5.23;;;;;;;20.36;77.26;100250.69;5088697;28;20028;-79
2023/08/22 02:49:40;;;;;;;11.70;5.37;;;;;;;20.34;77.53;100256.53;5088809;28;20265;-79
2023/08/22 02:52:05;;;;;;;17.27;5.40;;;;;;;20.38;77.50;100251.97;5088382;28;20257;-80
2023/08/22 02:54:30;;;;;;;13.40;6.10;;;;;;;20.39;77.26;100259.16;5087739;28;20272;-78
2023/08/22 02:56:56;;;;;;;9.65;5.32;;;;;;;20.38;77.33;100254.75;5087728;28;20045;-79
2023/08/22 02:59:21;;;;;;;11.65;5.85;;;;;;;20.28;77.51;100249.50;5087174;28;20036;-79
2023/08/22 03:01:46;;;;;;;13.05;5.63;;;;;;;20.30;77.54;100250.00;5088491;28;20076;-80
2023/08/22 03:04:12;;;;;;;9.88;6.07;;;;;;;20.32;77.20;100252.47;5088008;28;20024;-79
2023/08/22 03:06:37;;;;;;;7.82;4.68;;;;;;;20.28;77.49;100255.03;5087536;28;20094;-79
2023/08/22 03:09:03;;;;;;;10.10;5.30;;;;;;;20.29;77.52;100253.91;5087739;28;20032;-81
2023/08/22 03:11:28;;;;;;;10.63;5.30;;;;;;;20.28;77.15;100258.63;5088507;28;20036;-79
2023/08/22 03:13:54;;;;;;;13.35;6.85;;;;;;;20.29;76.87;100262.22;5088353;28;20028;-80
2023/08/22 03:16:19;;;;;;;13.63;6.63;;;;;;;20.22;77.61;100272.94;5088248;28;20024;-79
2023/08/22 03:18:46;;;;;;;12.67;5.37;;;;;;;20.20;77.50;100264.13;5087929;28;20039;-80
2023/08/22 03:21:11;;;;;;;11.15;5.60;;;;;;;20.18;77.23;100268.03;5089010;28;20265;-81
2023/08/22 03:23:36;;;;;;;12.68;4.93;;;;;;;20.06;77.50;100265.00;5086701;28;20560;-79
2023/08/22 03:26:10;;;;;;;9.85;5.18;;;;;;;20.08;77.49;100273.00;5082690;28;20064;-79
2023/08/22 03:28:36;;;;;;;8.55;4.72;;;;;;;20.10;77.16;100271.56;5082199;28;20072;-79
2023/08/22 03:31:04;;;;;;;12.60;6.25;;;;;;;20.11;77.56;100259.38;5087742;28;20074;-81
2023/08/22 03:33:32;;;;;;;10.45;4.63;;;;;;;20.07;77.12;100266.63;5091244;28;20577;-79
2023/08/22 03:35:58;;;;;;;9.75;4.60;;;;;;;20.01;77.23;100267.91;5091289;28;20020;-79
2023/08/22 03:38:24;;;;;;;13.65;4.70;;;;;;;20.02;76.96;100269.53;5091188;28;20044;-80
2023/08/22 03:40:51;;;;;;;10.15;5.40;;;;;;;20.01;76.98;100267.91;5091064;28;20651;-77
2023/08/22 03:43:18;;;;;;;11.48;4.80;;;;;;;19.98;77.07;100251.91;5091740;28;20024;-81
2023/08/22 03:45:44;;;;;;;10.70;4.68;;;;;;;19.99;76.93;100253.56;5090987;28;21252;-81
2023/08/22 03:48:09;;;;;;;9.20;4.50;;;;;;;19.97;77.05;100259.44;5092190;28;20119;-79
2023/08/22 03:50:35;;;;;;;10.07;4.90;;;;;;;19.98;76.94;100251.91;5091861;28;20150;-81
2023/08/22 03:53:00;;;;;;;12.55;5.20;;;;;;;19.95;76.78;100259.72;5090621;28;20024;-80
2023/08/22 03:55:26;;;;;;;9.40;4.47;;;;;;;19.92;76.88;100254.00;5090917;28;20027;-79
2023/08/22 03:57:51;;;;;;;10.32;5.93;;;;;;;19.90;76.46;100251.56;5090430;28;20040;-80
2023/08/22 04:00:16;;;;;;;10.95;5.22;;;;;;;19.90;76.78;100257.09;5090276;28;20070;-78
2023/08/22 04:02:42;;;;;;;9.27;5.72;;;;;;;19.90;76.76;100254.34;5090420;28;20032;-79
2023/08/22 04:05:07;;;;;;;10.47;5.17;;;;;;;19.86;77.14;100245.03;5090303;28;20032;-80
2023/08/22 04:07:32;;;;;;;9.82;4.85;;;;;;;19.87;77.21;100245.84;5089387;28;20295;-79
2023/08/22 04:09:58;;;;;;;12.00;5.00;;;;;;;19.86;77.14;100255.28;5090981;28;20382;-81
2023/08/22 04:12:23;;;;;;;10.33;4.73;;;;;;;19.86;77.08;100238.69;5089607;28;20051;-78
2023/08/22 04:14:49;;;;;;;14.98;5.07;;;;;;;19.87;77.45;100243.88;5090647;28;20336;-79
2023/08/22 04:17:14;;;;;;;11.07;4.70;;;;;;;19.89;77.07;100244.38;5090540;28;20113;-80
2023/08/22 04:19:40;;;;;;;10.85;5.60;;;;;;;19.86;77.09;100239.50;5090485;28;20040;-81
2023/08/22 04:22:05;;;;;;;13.75;5.47;;;;;;;19.84;77.25;100241.75;5091394;28;20052;-80
2023/08/22 04:24:31;;;;;;;19.67;5.60;;;;;;;19.82;77.20;100246.78;5088871;28;20028;-81
2023/08/22 04:26:56;;;;;;;12.68;4.45;;;;;;;19.85;77.12;100237.88;5086043;28;20328;-80
2023/08/22 04:29:22;;;;;;;7.47;3.83;;;;;;;19.82;77.06;100244.03;5086827;28;20040;-79
2023/08/22 04:31:48;;;;;;;9.63;4.20;;;;;;;19.75;77.56;100246.44;5088454;28;20024;-79
2023/08/22 04:34:13;;;;;;;8.27;3.97;;;;;;;19.78;77.27;100254.09;5089317;28;20061;-78
2023/08/22 04:36:38;;;;;;;7.38;3.65;;;;;;;19.78;77.64;100249.38;5090083;28;20020;-79
2023/08/22 04:39:04;;;;;;;11.93;4.10;;;;;;;19.81;77.44;100245.19;5089995;28;20145;-79
2023/08/22 04:41:29;;;;;;;14.77;4.53;;;;;;;19.85;77.20;100248.94;5087877;28;20261;-73
2023/08/22 04:43:55;;;;;;;9.23;4.60;;;;;;;19.81;76.77;100253.47;5085727;28;20055;-74
2023/08/22 04:46:20;;;;;;;12.25;3.50;;;;;;;19.78;77.20;100246.63;5085862;28;20028;-72
2023/08/22 04:48:45;;;;;;;13.05;3.88;;;;;;;19.77;77.26;100255.25;5085859;28;20071;-72
2023/08/22 04:51:11;;;;;;;13.57;4.53;;;;;;;19.75;77.53;100246.44;5085435;28;20024;-73
2023/08/22 04:53:36;;;;;;;10.07;5.77;;;;;;;19.78;77.40;100249.38;5085872;28;20081;-73
2023/08/22 04:56:01;;;;;;;9.90;4.73;;;;;;;19.78;77.81;100246.63;5086102;28;20247;-72
2023/08/22 04:58:26;;;;;;;11.10;4.93;;;;;;;19.81;77.92;100253.47;5086100;28;20261;-73
2023/08/22 05:00:52;;;;;;;7.80;4.80;;;;;;;19.83;77.92;100256.75;5085618;28;20637;-72
2023/08/22 05:03:19;;;;;;;8.23;4.70;;;;;;;19.85;78.07;100248.94;5086308;28;20115;-73
2023/08/22 05:05:44;;;;;;;11.90;5.13;;;;;;;19.90;78.19;100257.09;5085995;28;20275;-72
2023/08/22 05:08:10;;;;;;;12.73;4.80;;;;;;;19.92;78.27;100254.84;5085838;28;20586;-72
2023/08/22 05:10:35;;;;;;;12.77;4.83;;;;;;;19.93;78.42;100253.69;5085472;28;20117;-72
2023/08/22 05:13:00;;;;;;;9.50;5.20;;;;;;;19.95;78.27;100251.41;5085846;28;20260;-73
2023/08/22 05:15:25;;;;;;;13.10;4.37;;;;;;;19.99;78.31;100253.56;5084348;28;20269;-73
2023/08/22 05:17:51;;;;;;;7.90;4.80;;;;;;;20.00;78.29;100252.41;5085007;28;20255;-73
2023/08/22 05:20:16;;;;;;;10.18;4.65;;;;;;;20.01;78.39;100256.84;5085765;28;20036;-72
2023/08/22 05:22:42;;;;;;;8.02;3.58;;;;;;;20.03;78.39;100254.56;5085442;28;20043;-73
2023/08/22 05:25:07;;;;;;;9.00;4.57;;;;;;;20.06;78.78;100259.47;5084286;28;20038;-73
2023/08/22 05:27:33;;;;;;;11.57;4.18;;;;;;;20.05;78.56;100246.78;5084104;28;20040;-72
2023/08/22 05:29:58;;;;;;;11.27;3.60;;;;;;;20.07;78.44;100255.56;5084851;28;20369;-73
2023/08/22 05:32:23;;;;;;;14.73;4.83;;;;;;;20.04;78.45;100245.94;5084954;28;20094;-73
2023/08/22 05:34:49;;;;;;;7.10;3.95;;;;;;;20.00;79.04;100252.41;5084617;28;20101;-72
2023/08/22 05:37:14;;;;;;;10.20;3.70;;;;;;;20.02;78.97;100258.47;5084505;28;20039;-74
2023/08/22 05:39:39;;;;;;;11.27;4.43;;;;;;;20.00;79.04;100244.13;5084135;28;20453;-74
2023/08/22 05:42:05;;;;;;;8.70;4.10;;;;;;;20.01;78.95;100246.59;5085335;28;20252;-73
2023/08/22 05:44:32;;;;;;;9.50;4.45;;;;;;;20.03;79.00;100262.88;5084342;28;20261;-73
2023/08/22 05:46:57;;;;;;;17.17;4.78;;;;;;;20.04;79.01;100258.97;5084647;28;20047;-73
2023/08/22 05:49:23;;;;;;;9.75;4.25;;;;;;;20.08;78.91;100254.44;5084737;28;20043;-73
2023/08/22 05:51:48;;;;;;;11.85;4.20;;;;;;;20.12;79.05;100254.63;5085660;28;20841;-79
2023/08/22 05:54:13;;;;;;;8.90;4.23;;;;;;;20.13;79.00;100259.03;5087806;28;20032;-80
2023/08/22 05:56:38;;;;;;;12.52;4.65;;;;;;;20.17;79.43;100258.09;5087797;28;20253;-80
2023/08/22 05:59:04;;;;;;;7.63;4.37;;;;;;;20.20;79.27;100264.13;5088334;28;20061;-81
2023/08/22 06:01:29;;;;;;;8.73;4.03;;;;;;;20.22;79.12;100262.66;5088205;28;20348;-73
2023/08/22 06:03:55;;;;;;;14.70;4.38;;;;;;;20.29;78.47;100267.75;5084206;28;20276;-73
2023/08/22 06:06:20;;;;;;;8.70;3.88;;;;;;;20.39;77.63;100261.94;5084265;28;20126;-74
2023/08/22 06:08:45;;;;;;;10.20;4.87;;;;;;;20.49;77.39;100271.06;5084303;28;20032;-74
2023/08/22 06:11:10;;;;;;;14.65;4.38;;;;;;;20.54;77.05;100268.19;5084775;28;20602;-73
2023/08/22 06:13:36;;;;;;;9.47;4.37;;;;;;;20.64;76.61;100267.84;5084826;28;20479;-73
2023/08/22 06:16:01;;;;;;;16.20;3.83;;;;;;;20.65;76.12;100266.75;5084421;28;20066;-73
2023/08/22 06:18:26;;;;;;;10.15;4.35;;;;;;;20.71;75.91;100266.56;5084310;28;20256;-74
2023/08/22 06:20:51;;;;;;;9.00;4.13;;;;;;;20.77;75.84;100262.53;5083447;28;20036;-73
2023/08/22 06:23:17;;;;;;;10.20;4.35;;;;;;;20.82;75.88;100267.09;5083682;28;20269;-77
2023/08/22 06:25:42;;;;;;;9.53;4.37;;;;;;;20.85;75.82;100269.22;5083058;28;20136;-74
2023/08/22 06:28:07;;;;;;;11.57;3.58;;;;;;;20.85;75.65;100261.72;5084517;28;20277;-75
2023/08/22 06:30:33;;;;;;;10.70;3.40;;;;;;;20.78;75.57;100269.72;5085626;28;20035;-74
2023/08/22 06:32:58;;;;;;;7.20;3.92;;;;;;;20.87;75.06;100266.94;5083780;28;20043;-76
2023/08/22 06:35:25;;;;;;;10.25;3.67;;;;;;;20.92;74.84;100261.25;5082753;28;20028;-74
2023/08/22 06:37:50;;;;;;;11.35;3.28;;;;;;;20.96;74.57;100272.50;5084992;28;20131;-74
2023/08/22 06:40:16;;;;;;;13.00;2.67;;;;;;;20.96;74.23;100275.28;5082573;28;20122;-74
2023/08/22 06:42:41;;;;;;;6.10;3.45;;;;;;;21.04;74.11;100279.22;5082654;28;20602;-75
2023/08/22 06:45:07;;;;;;;8.20;3.60;;;;;;;21.14;73.31;100278.09;5083341;28;20093;-74
2023/08/22 06:47:32;;;;;;;4.82;3.28;;;;;;;21.18;73.43;100274.34;5085242;28;20103;-76
2023/08/22 06:49:57;;;;;;;10.50;4.03;;;;;;;21.24;73.04;100269.47;5082942;28;20036;-76
2023/08/22 06:52:23;;;;;;;9.47;3.50;;;;;;;21.28;73.27;100278.75;5082864;28;20282;-72
2023/08/22 06:54:48;;;;;;;14.60;4.03;;;;;;;21.30;72.36;100270.94;5082076;28;20252;-75
2023/08/22 06:57:13;;;;;;;8.20;3.43;;;;;;;21.33;72.03;100275.03;5081842;28;20264;-74
2023/08/22 06:59:38;;;;;;;8.87;3.87;;;;;;;21.37;72.36;100283.50;5082307;28;20264;-73
2023/08/22 07:02:04;;;;;;;12.70;3.73;;;;;;;21.42;72.60;100277.78;5082447;28;20253;-79
2023/08/22 07:04:31;;;;;;;10.02;4.20;;;;;;;21.50;72.43;100284.50;5081704;28;20056;-79
2023/08/22 07:06:56;;;;;;;10.25;5.05;;;;;;;21.52;72.54;100280.22;5084726;28;20082;-79
2023/08/22 07:09:21;;;;;;;8.07;3.90;;;;;;;21.59;72.58;100290.84;5086164;28;20111;-79
2023/08/22 07:11:47;;;;;;;7.67;4.23;;;;;;;21.60;72.93;100291.66;5085062;28;20261;-76
2023/08/22 07:14:13;;;;;;;9.33;5.00;;;;;;;21.67;72.73;100284.47;5086727;28;20264;-83
2023/08/22 07:16:38;;;;;;;9.50;5.20;;;;;;;21.69;72.76;100282.19;5086390;28;20741;-82
2023/08/22 07:19:03;;;;;;;14.57;5.00;;;;;;;21.74;72.65;100272.06;5086020;28;20031;-83
2023/08/22 07:21:29;;;;;;;13.60;5.63;;;;;;;21.74;72.90;100280.38;5086517;28;20268;-82
2023/08/22 07:23:55;;;;;;;11.15;5.30;;;;;;;21.77;72.94;100277.75;5085503;28;20644;-82
2023/08/22 07:26:20;;;;;;;11.55;5.82;;;;;;;21.77;73.18;100274.16;5085850;28;20500;-82
2023/08/22 07:28:45;;;;;;;10.30;5.38;;;;;;;21.78;73.55;100284.94;5086616;28;20059;-82
2023/08/22 07:31:11;;;;;;;8.23;4.33;;;;;;;21.79;73.63;100285.75;5085922;28;20499;-82
2023/08/22 07:33:36;;;;;;;11.40;5.23;;;;;;;21.81;74.13;100286.25;5085668;28;20264;-82
2023/08/22 07:36:02;;;;;;;13.63;5.87;;;;;;;21.81;74.16;100287.06;5086044;28;20257;-82
2023/08/22 07:38:29;;;;;;;13.73;6.38;;;;;;;21.84;74.20;100287.56;5085863;28;20362;-82
2023/08/22 07:40:54;;;;;;;11.82;6.07;;;;;;;21.87;74.01;100287.72;5085861;28;20473;-83
2023/08/22 07:43:19;;;;;;;13.30;5.97;;;;;;;21.92;74.24;100283.97;5085672;28;20028;-84
2023/08/22 07:45:45;;;;;;;11.60;4.93;;;;;;;21.93;75.08;100286.41;5085981;28;20042;-82
2023/08/22 07:48:10;;;;;;;10.98;4.63;;;;;;;21.98;75.22;100288.22;5084998;28;20281;-82
2023/08/22 07:50:35;;;;;;;11.63;6.15;;;;;;;22.06;74.62;100288.50;5084853;28;20344;-83
2023/08/22 07:53:01;;;;;;;13.20;5.45;;;;;;;22.06;74.09;100282.94;5084302;28;20039;-84
2023/08/22 07:55:26;;;;;;;13.23;5.60;;;;;;;22.09;74.29;100288.66;5085060;28;20135;-81
2023/08/22 07:57:52;;;;;;;16.08;5.30;;;;;;;22.11;74.10;100294.69;5085604;28;20101;-81
2023/08/22 08:00:18;;;;;;;12.27;5.70;;;;;;;22.18;73.55;100296.97;5084929;28;20388;-82
2023/08/22 08:02:43;;;;;;;12.73;4.90;;;;;;;22.20;72.64;100303.00;5084852;28;20043;-81
2023/08/22 08:05:09;;;;;;;11.57;5.18;;;;;;;22.17;73.13;100300.88;5084429;28;20138;-82
2023/08/22 08:07:34;;;;;;;15.57;5.65;;;;;;;22.18;72.81;100302.53;5084637;28;20048;-82
2023/08/22 08:10:00;;;;;;;20.27;6.65;;;;;;;22.24;72.82;100315.06;5084790;28;20716;-84
2023/08/22 08:12:25;;;;;;;12.10;5.72;;;;;;;22.30;72.18;100317.66;5084939;28;20023;-79
2023/08/22 08:14:51;;;;;;;12.32;6.05;;;;;;;22.34;72.18;100307.53;5083704;28;20058;-78
2023/08/22 08:17:18;;;;;;;12.13;5.50;;;;;;;22.42;70.80;100317.78;5084252;28;20075;-76
2023/08/22 08:19:43;;;;;;;13.85;5.30;;;;;;;22.48;71.10;100310.09;5084118;28;20930;-78
2023/08/22 08:22:08;;;;;;;9.13;5.63;;;;;;;22.53;70.40;100320.19;5086520;28;20031;-81
2023/08/22 08:24:34;;;;;;;11.95;5.15;;;;;;;22.55;70.04;100315.13;5092189;28;20027;-83
2023/08/22 08:26:59;;;;;;;11.10;5.35;;;;;;;22.59;69.73;100304.97;5085136;28;20040;-82
2023/08/22 08:29:24;;;;;;;16.37;5.60;;;;;;;22.64;70.01;100307.56;5087032;28;20073;-80
2023/08/22 08:31:49;;;;;;;10.07;4.90;;;;;;;22.68;70.31;100314.09;5089505;28;20745;-82
2023/08/22 08:34:15;;;;;;;9.10;4.55;;;;;;;22.73;70.57;100311.16;5088551;28;20308;-81
2023/08/22 08:36:40;;;;;;;10.03;4.33;;;;;;;22.80;70.61;100309.81;5091296;28;20024;-82
2023/08/22 08:39:05;;;;;;;11.48;5.60;;;;;;;22.90;69.86;100319.72;5087183;28;20379;-85
2023/08/22 08:41:33;;;;;;;7.27;3.53;;;;;;;22.97;69.46;100312.50;5085192;28;20121;-81
2023/08/22 08:44:00;;;;;;;65.97;9.25;;;;;;;23.07;68.24;100314.06;5088890;28;20272;-82
2023/08/22 08:46:29;;;;;;;12.60;3.70;;;;;;;23.15;68.19;100312.38;5092481;28;20049;-78
2023/08/22 08:48:55;;;;;;;14.93;4.60;;;;;;;23.18;68.24;100313.66;5092534;28;20020;-78
2023/08/22 08:51:21;;;;;;;8.95;3.38;;;;;;;23.25;66.81;100318.69;5094520;28;20766;-85
2023/08/22 08:53:48;;;;;;;10.35;4.00;;;;;;;23.36;64.70;100316.31;5093649;28;20034;-82
2023/08/22 08:56:14;;;;;;;8.60;3.55;;;;;;;23.45;65.79;100317.09;5093548;28;20032;-83
2023/08/22 08:58:39;;;;;;;10.23;3.92;;;;;;;23.53;64.42;100323.75;5093257;28;20032;-80
2023/08/22 09:01:06;;;;;;;10.40;4.00;;;;;;;23.66;63.54;100316.25;5092631;28;20130;-82
2023/08/22 09:03:32;;;;;;;8.88;4.22;;;;;;;23.74;63.99;100318.16;5091856;28;20103;-83
2023/08/22 09:05:57;;;;;;;9.07;5.18;;;;;;;23.84;63.55;100328.03;5092469;28;20139;-81
2023/08/22 09:08:23;;;;;;;12.23;4.07;;;;;;;23.91;63.06;100321.94;5092455;28;20028;-81
2023/08/22 09:10:53;;;;;;;10.98;4.28;;;;;;;23.94;62.36;100323.22;5097660;28;20241;-84
2023/08/22 09:13:28;;;;;;;10.68;4.65;;;;;;;23.97;62.24;100314.16;5093678;28;20016;-81
2023/08/22 09:16:03;;;;;;;20.58;5.22;;;;;;;23.96;63.08;100324.47;5093057;28;20020;-81
2023/08/22 09:18:28;;;;;;;10.02;4.15;;;;;;;23.97;62.84;100319.75;5091425;28;20036;-83
2023/08/22 09:21:02;;;;;;;17.52;5.43;;;;;;;23.96;63.26;100318.13;5091730;28;20082;-83
2023/08/22 09:23:29;;;;;;;9.10;5.00;;;;;;;23.93;63.74;100324.38;5091185;28;20718;-82
2023/08/22 09:25:55;;;;;;;13.57;4.82;;;;;;;23.99;63.08;100318.25;5094811;28;20020;-84
2023/08/22 09:28:20;;;;;;;10.52;3.97;;;;;;;24.01;63.34;100331.81;5091944;28;20087;-80
2023/08/22 09:30:48;;;;;;;8.75;5.13;;;;;;;24.05;62.88;100326.38;5093183;28;20591;-84
2023/08/22 09:33:13;;;;;;;9.45;4.78;;;;;;;24.09;63.05;100322.56;5093450;28;20431;-84
2023/08/22 09:35:38;;;;;;;8.40;3.63;;;;;;;24.10;63.08;100326.97;5097043;28;20085;-85
2023/08/22 09:38:08;;;;;;;11.43;4.97;;;;;;;24.10;62.78;100326.16;5093644;28;20253;-84
2023/08/22 09:40:34;;;;;;;8.63;4.35;;;;;;;24.08;62.46;100336.84;5093242;28;20265;-83
2023/08/22 09:43:03;;;;;;;7.97;3.80;;;;;;;24.05;62.67;100332.75;5092537;28;20028;-86
2023/08/22 09:45:30;;;;;;;10.63;5.28;;;;;;;24.10;61.83;100323.38;5091151;28;20625;-83
2023/08/22 09:47:57;;;;;;;8.73;4.35;;;;;;;24.20;60.58;100324.91;5090616;28;20031;-85
2023/08/22 09:50:26;;;;;;;11.38;4.40;;;;;;;24.29;61.53;100331.22;5092636;28;20023;-84
2023/08/22 09:52:52;;;;;;;8.60;4.38;;;;;;;24.38;59.93;100311.63;5091979;28;20030;-84
2023/08/22 09:55:19;;;;;;;12.30;4.78;;;;;;;24.48;58.00;100307.56;5092537;28;20024;-84
2023/08/22 09:57:44;;;;;;;11.18;5.32;;;;;;;24.54;58.50;100314.53;5092402;28;20034;-81
2023/08/22 10:00:10;;;;;;;10.13;4.63;;;;;;;24.69;57.33;100313.03;5091945;28;20028;-83
2023/08/22 10:02:36;;;;;;;8.90;5.03;;;;;;;24.69;58.15;100303.88;5091978;28;20028;-82
2023/08/22 10:05:03;;;;;;;11.63;4.38;;;;;;;24.75;58.17;100299.69;5089985;28;20450;-82
2023/08/22 10:07:28;;;;;;;9.30;4.43;;;;;;;24.78;58.67;100298.16;5089303;28;20069;-83
2023/08/22 10:09:53;;;;;;;9.13;4.28;;;;;;;24.80;59.16;100304.19;5091818;28;20032;-82
2023/08/22 10:12:21;;;;;;;10.50;5.13;;;;;;;24.87;59.07;100304.44;5087433;28;20040;-82
2023/08/22 10:14:56;;;;;;;12.05;6.35;;;;;;;24.93;56.77;100314.19;5083813;28;20054;-82
2023/08/22 10:17:26;;;;;;;5.45;3.70;;;;;;;24.96;58.47;100304.31;5087139;28;20036;-83
2023/08/22 10:19:51;;;;;;;10.85;5.25;;;;;;;24.90;56.55;100311.25;5087383;28;20127;-85
2023/08/22 10:22:17;;;;;;;10.20;5.47;;;;;;;24.82;57.03;100301.88;5089198;28;20111;-85
2023/08/22 10:24:46;;;;;;;7.22;3.92;;;;;;;24.79;57.13;100305.38;5089394;28;20491;-84
2023/08/22 10:27:16;;;;;;;9.38;5.00;;;;;;;24.82;56.18;100308.25;5089414;28;20031;-84
2023/08/22 10:29:46;;;;;;;13.85;4.70;;;;;;;24.85;57.47;100312.34;5088660;28;20028;-85
2023/08/22 10:32:11;;;;;;;8.25;4.88;;;;;;;24.84;56.42;100300.38;5087955;28;20056;-84
2023/08/22 10:34:40;;;;;;;12.70;6.00;;;;;;;24.82;57.29;100305.47;5088295;28;20067;-84
2023/08/22 10:37:28;;;;;;;6.75;4.30;;;;;;;24.80;57.36;100310.59;5088631;28;20032;-84
2023/08/22 10:39:58;;;;;;;8.20;3.83;;;;;;;24.80;57.31;100304.19;5089673;28;20548;-85
2023/08/22 10:42:24;;;;;;;7.68;3.55;;;;;;;24.80;57.02;100307.81;5088027;28;20096;-76
2023/08/22 10:44:50;;;;;;;7.70;4.25;;;;;;;24.83;56.70;100298.75;5089717;28;20067;-77
2023/08/22 10:47:19;;;;;;;10.43;3.92;;;;;;;24.81;57.65;100294.69;5091130;28;20098;-78
2023/08/22 10:49:49;;;;;;;9.73;5.00;;;;;;;24.76;57.91;100292.94;5095134;28;20419;-78
2023/08/22 10:52:15;;;;;;;6.63;3.80;;;;;;;24.86;58.60;100296.41;5092708;28;20028;-76
2023/08/22 10:55:03;;;;;;;10.45;4.65;;;;;;;24.89;56.73;100290.97;5091016;28;20066;-74
2023/08/22 10:57:29;;;;;;;9.15;4.28;;;;;;;24.93;56.15;100293.84;5086341;28;20122;-71
2023/08/22 10:59:58;;;;;;;7.72;4.47;;;;;;;24.94;56.37;100312.19;5089792;28;20050;-77
2023/08/22 11:02:27;;;;;;;7.93;3.63;;;;;;;24.93;56.69;100302.22;5091100;28;20047;-78
2023/08/22 11:04:55;;;;;;;9.02;4.05;;;;;;;25.05;56.08;100304.19;5091845;28;20035;-77
2023/08/22 11:07:21;;;;;;;6.97;3.40;;;;;;;25.10;56.16;100306.75;5096122;28;20712;-78
2023/08/22 11:09:48;;;;;;;10.45;3.50;;;;;;;25.06;56.20;100303.03;5093382;28;20451;-78
2023/08/22 11:12:24;;;;;;;8.40;3.63;;;;;;;25.06;56.60;100301.06;5093042;28;20068;-81
2023/08/22 11:14:51;;;;;;;10.60;3.78;;;;;;;25.09;55.83;100305.13;5091452;28;20035;-78